sensor_id;sensor_type;location;lat;lon;timestamp;pressure;altitude;pressure_sealevel;temperature;humidity
20228;BME280;12195;55.790;37.572;2023-12-20T00:02:31;97984.08;;;4.61;87.41
20228;BME280;12195;55.790;37.572;2023-12-20T00:05:04;97983.17;;;4.62;87.35
20228;BME280;12195;55.790;37.572;2023-12-20T00:07:36;97983.17;;;4.62;87.38
20228;BME280;12195;55.790;37.572;2023-12-20T00:10:09;97976.41;;;4.59;87.35
20228;BME280;12195;55.790;37.572;2023-12-20T00:12:43;97988.46;;;4.60;87.39
20228;BME280;12195;55.790;37.572;2023-12-20T00:15:15;97986.68;;;4.61;87.46
20228;BME280;12195;55.790;37.572;2023-12-20T00:17:48;97985.09;;;4.58;87.49
20228;BME280;12195;55.790;37.572;2023-12-20T00:20:21;97989.39;;;4.59;87.54
20228;BME280;12195;55.790;37.572;2023-12-20T00:22:57;97978.80;;;4.62;87.62
20228;BME280;12195;55.790;37.572;2023-12-20T00:25:30;98009.98;;;4.62;87.74
20228;BME280;12195;55.790;37.572;2023-12-20T00:28:03;98002.02;;;4.65;87.68
20228;BME280;12195;55.790;37.572;2023-12-20T00:30:35;98001.93;;;4.67;87.76
20228;BME280;12195;55.790;37.572;2023-12-20T00:33:08;98005.17;;;4.70;87.82
20228;BME280;12195;55.790;37.572;2023-12-20T00:35:40;97991.75;;;4.78;87.49
20228;BME280;12195;55.790;37.572;2023-12-20T00:38:13;97988.95;;;4.81;87.51
20228;BME280;12195;55.790;37.572;2023-12-20T00:40:46;97989.80;;;4.81;87.34
20228;BME280;12195;55.790;37.572;2023-12-20T00:43:18;97997.51;;;4.83;87.15
20228;BME280;12195;55.790;37.572;2023-12-20T00:45:51;98004.28;;;4.85;87.19
20228;BME280;12195;55.790;37.572;2023-12-20T00:48:23;98016.27;;;4.88;87.27
20228;BME280;12195;55.790;37.572;2023-12-20T00:50:58;98009.23;;;4.90;86.86
20228;BME280;12195;55.790;37.572;2023-12-20T00:53:30;98003.18;;;4.89;86.81
20228;BME280;12195;55.790;37.572;2023-12-20T00:56:03;98002.42;;;4.87;87.01
20228;BME280;12195;55.790;37.572;2023-12-20T00:58:35;98000.58;;;4.89;86.76
20228;BME280;12195;55.790;37.572;2023-12-20T01:01:08;98000.58;;;4.89;86.79
20228;BME280;12195;55.790;37.572;2023-12-20T01:03:40;97993.25;;;4.96;86.80
20228;BME280;12195;55.790;37.572;2023-12-20T01:06:13;97990.00;;;4.92;86.67
20228;BME280;12195;55.790;37.572;2023-12-20T01:08:47;97989.24;;;4.90;86.89
20228;BME280;12195;55.790;37.572;2023-12-20T01:11:19;97980.33;;;4.94;86.40
20228;BME280;12195;55.790;37.572;2023-12-20T01:13:52;97973.00;;;4.87;86.29
20228;BME280;12195;55.790;37.572;2023-12-20T01:16:24;97977.73;;;4.80;86.40
20228;BME280;12195;55.790;37.572;2023-12-20T01:18:57;97973.90;;;4.72;86.66
20228;BME280;12195;55.790;37.572;2023-12-20T01:21:29;97968.88;;;4.69;86.71
20228;BME280;12195;55.790;37.572;2023-12-20T01:24:02;97960.34;;;4.67;86.59
20228;BME280;12195;55.790;37.572;2023-12-20T01:26:35;97961.92;;;4.69;86.41
20228;BME280;12195;55.790;37.572;2023-12-20T01:29:07;97967.30;;;4.66;86.36
20228;BME280;12195;55.790;37.572;2023-12-20T01:31:40;97968.69;;;4.58;86.44
20228;BME280;12195;55.790;37.572;2023-12-20T01:34:12;97978.49;;;4.53;86.71
20228;BME280;12195;55.790;37.572;2023-12-20T01:36:45;97968.09;;;4.53;86.83
20228;BME280;12195;55.790;37.572;2023-12-20T01:39:18;97972.39;;;4.54;86.79
20228;BME280;12195;55.790;37.572;2023-12-20T01:41:52;97968.09;;;4.53;86.67
20228;BME280;12195;55.790;37.572;2023-12-20T01:44:24;97963.75;;;4.53;86.74
20228;BME280;12195;55.790;37.572;2023-12-20T01:46:58;97966.27;;;4.55;86.91
20228;BME280;12195;55.790;37.572;2023-12-20T01:49:30;97946.80;;;4.62;86.72
20228;BME280;12195;55.790;37.572;2023-12-20T01:52:03;97949.95;;;4.67;86.58
20228;BME280;12195;55.790;37.572;2023-12-20T01:54:36;97937.69;;;4.69;86.33
20228;BME280;12195;55.790;37.572;2023-12-20T01:57:10;97936.11;;;4.66;86.50
20228;BME280;12195;55.790;37.572;2023-12-20T01:59:42;97935.47;;;4.63;86.48
20228;BME280;12195;55.790;37.572;2023-12-20T02:02:16;97942.71;;;4.72;86.27
20228;BME280;12195;55.790;37.572;2023-12-20T02:04:49;97952.64;;;4.65;86.00
20228;BME280;12195;55.790;37.572;2023-12-20T02:07:23;97947.91;;;4.58;86.01
20228;BME280;12195;55.790;37.572;2023-12-20T02:09:55;97958.86;;;4.63;85.75
20228;BME280;12195;55.790;37.572;2023-12-20T02:12:30;97948.38;;;4.64;86.02
20228;BME280;12195;55.790;37.572;2023-12-20T02:15:05;97944.93;;;4.64;86.10
20228;BME280;12195;55.790;37.572;2023-12-20T02:17:37;97935.09;;;4.69;86.02
20228;BME280;12195;55.790;37.572;2023-12-20T02:20:10;97937.55;;;4.86;85.82
20228;BME280;12195;55.790;37.572;2023-12-20T02:22:43;97920.72;;;4.77;85.33
20228;BME280;12195;55.790;37.572;2023-12-20T02:25:15;97912.16;;;4.75;85.62
20228;BME280;12195;55.790;37.572;2023-12-20T02:27:49;97914.42;;;4.67;85.65
20228;BME280;12195;55.790;37.572;2023-12-20T02:30:22;97918.13;;;4.63;85.70
20228;BME280;12195;55.790;37.572;2023-12-20T02:32:55;97926.91;;;4.61;85.63
20228;BME280;12195;55.790;37.572;2023-12-20T02:35:29;97926.09;;;4.60;85.74
20228;BME280;12195;55.790;37.572;2023-12-20T02:38:01;97928.02;;;4.57;85.80
20228;BME280;12195;55.790;37.572;2023-12-20T02:40:34;97930.53;;;4.58;85.95
20228;BME280;12195;55.790;37.572;2023-12-20T02:43:06;97937.22;;;4.62;86.04
20228;BME280;12195;55.790;37.572;2023-12-20T02:45:39;97931.59;;;4.70;85.92
20228;BME280;12195;55.790;37.572;2023-12-20T02:48:12;97931.20;;;4.76;85.70
20228;BME280;12195;55.790;37.572;2023-12-20T02:50:46;97942.54;;;4.75;85.69
20228;BME280;12195;55.790;37.572;2023-12-20T02:53:20;97945.05;;;4.76;85.74
20228;BME280;12195;55.790;37.572;2023-12-20T02:55:52;97944.49;;;4.85;85.31
20228;BME280;12195;55.790;37.572;2023-12-20T02:58:25;97946.92;;;4.88;84.95
20228;BME280;12195;55.790;37.572;2023-12-20T03:00:57;97945.13;;;4.89;85.08
20228;BME280;12195;55.790;37.572;2023-12-20T03:03:31;97935.67;;;4.88;85.08
20228;BME280;12195;55.790;37.572;2023-12-20T03:06:04;97936.22;;;4.93;85.14
20228;BME280;12195;55.790;37.572;2023-12-20T03:08:37;97924.07;;;4.93;84.97
20228;BME280;12195;55.790;37.572;2023-12-20T03:11:10;97927.48;;;4.94;85.22
20228;BME280;12195;55.790;37.572;2023-12-20T03:13:42;97916.09;;;4.96;85.22
20228;BME280;12195;55.790;37.572;2023-12-20T03:16:26;97919.42;;;4.98;85.21
20228;BME280;12195;55.790;37.572;2023-12-20T03:18:58;97923.50;;;5.02;84.96
20228;BME280;12195;55.790;37.572;2023-12-20T03:21:31;97929.47;;;5.04;84.56
20228;BME280;12195;55.790;37.572;2023-12-20T03:24:04;97940.69;;;5.05;84.34
20228;BME280;12195;55.790;37.572;2023-12-20T03:26:37;97934.00;;;5.01;84.31
20228;BME280;12195;55.790;37.572;2023-12-20T03:29:09;97928.88;;;4.99;84.08
20228;BME280;12195;55.790;37.572;2023-12-20T03:31:42;97930.09;;;4.94;84.05
20228;BME280;12195;55.790;37.572;2023-12-20T03:34:14;97924.16;;;4.92;83.81
20228;BME280;12195;55.790;37.572;2023-12-20T03:36:47;97931.11;;;4.91;83.48
20228;BME280;12195;55.790;37.572;2023-12-20T03:39:20;97928.81;;;4.87;83.29
20228;BME280;12195;55.790;37.572;2023-12-20T03:41:54;97928.34;;;4.80;83.84
20228;BME280;12195;55.790;37.572;2023-12-20T03:44:27;97916.25;;;4.79;83.82
20228;BME280;12195;55.790;37.572;2023-12-20T03:47:00;97917.36;;;4.75;83.89
20228;BME280;12195;55.790;37.572;2023-12-20T03:49:32;97925.28;;;4.74;84.42
20228;BME280;12195;55.790;37.572;2023-12-20T03:52:05;97933.98;;;4.73;84.49
20228;BME280;12195;55.790;37.572;2023-12-20T03:54:38;97933.98;;;4.73;84.81
20228;BME280;12195;55.790;37.572;2023-12-20T03:57:11;97952.00;;;4.76;84.89
20228;BME280;12195;55.790;37.572;2023-12-20T03:59:59;97943.18;;;4.78;84.63
20228;BME280;12195;55.790;37.572;2023-12-20T04:02:33;97933.72;;;4.77;84.57
20228;BME280;12195;55.790;37.572;2023-12-20T04:05:06;97941.63;;;4.90;84.76
20228;BME280;12195;55.790;37.572;2023-12-20T04:07:39;97938.83;;;4.79;84.29
20228;BME280;12195;55.790;37.572;2023-12-20T04:10:12;97925.07;;;4.77;84.50
20228;BME280;12195;55.790;37.572;2023-12-20T04:12:45;97938.82;;;4.93;84.59
20228;BME280;12195;55.790;37.572;2023-12-20T04:15:19;97937.05;;;4.79;84.39
20228;BME280;12195;55.790;37.572;2023-12-20T04:17:51;97939.64;;;4.79;84.77
20228;BME280;12195;55.790;37.572;2023-12-20T04:20:25;97940.50;;;4.80;84.94
20228;BME280;12195;55.790;37.572;2023-12-20T04:22:58;97948.30;;;4.80;85.15
20228;BME280;12195;55.790;37.572;2023-12-20T04:25:31;97939.30;;;4.85;84.95
20228;BME280;12195;55.790;37.572;2023-12-20T04:28:04;97936.78;;;4.84;85.10
20228;BME280;12195;55.790;37.572;2023-12-20T04:30:37;97945.43;;;4.84;85.04
20228;BME280;12195;55.790;37.572;2023-12-20T04:33:11;97948.20;;;4.81;85.18
20228;BME280;12195;55.790;37.572;2023-12-20T04:35:44;97953.31;;;4.83;84.92
20228;BME280;12195;55.790;37.572;2023-12-20T04:38:18;97953.49;;;4.80;85.07
20228;BME280;12195;55.790;37.572;2023-12-20T04:40:51;97959.45;;;4.82;84.95
20228;BME280;12195;55.790;37.572;2023-12-20T04:43:23;97955.24;;;4.79;85.07
20228;BME280;12195;55.790;37.572;2023-12-20T04:45:56;97945.69;;;4.94;84.81
20228;BME280;12195;55.790;37.572;2023-12-20T04:48:29;97948.38;;;4.78;84.27
20228;BME280;12195;55.790;37.572;2023-12-20T04:51:02;97948.84;;;4.71;84.49
20228;BME280;12195;55.790;37.572;2023-12-20T04:53:36;97954.12;;;4.69;84.61
20228;BME280;12195;55.790;37.572;2023-12-20T04:56:08;97948.29;;;4.66;84.97
20228;BME280;12195;55.790;37.572;2023-12-20T04:58:42;97956.09;;;4.66;85.06
20228;BME280;12195;55.790;37.572;2023-12-20T05:01:15;97953.02;;;4.73;84.81
20228;BME280;12195;55.790;37.572;2023-12-20T05:03:48;97966.66;;;4.77;84.54
20228;BME280;12195;55.790;37.572;2023-12-20T05:06:21;97952.94;;;4.75;84.69
20228;BME280;12195;55.790;37.572;2023-12-20T05:08:54;97946.62;;;4.79;84.54
20228;BME280;12195;55.790;37.572;2023-12-20T05:11:27;97949.40;;;4.76;84.53
20228;BME280;12195;55.790;37.572;2023-12-20T05:14:01;97952.17;;;4.73;84.91
20228;BME280;12195;55.790;37.572;2023-12-20T05:16:35;97963.97;;;4.78;85.22
20228;BME280;12195;55.790;37.572;2023-12-20T05:19:08;97956.35;;;4.75;84.59
20228;BME280;12195;55.790;37.572;2023-12-20T05:21:41;97955.63;;;4.73;84.67
20228;BME280;12195;55.790;37.572;2023-12-20T05:24:14;97955.88;;;4.69;84.97
20228;BME280;12195;55.790;37.572;2023-12-20T05:26:47;97955.45;;;4.76;84.69
20228;BME280;12195;55.790;37.572;2023-12-20T05:29:23;97963.33;;;4.75;84.98
20228;BME280;12195;55.790;37.572;2023-12-20T05:31:57;97965.93;;;4.75;84.81
20228;BME280;12195;55.790;37.572;2023-12-20T05:34:30;97960.00;;;4.87;85.03
20228;BME280;12195;55.790;37.572;2023-12-20T05:37:04;97967.42;;;4.79;84.33
20228;BME280;12195;55.790;37.572;2023-12-20T05:39:36;97970.95;;;4.78;84.39
20228;BME280;12195;55.790;37.572;2023-12-20T05:42:10;97971.86;;;4.77;84.54
20228;BME280;12195;55.790;37.572;2023-12-20T05:44:43;97975.30;;;4.77;84.83
20228;BME280;12195;55.790;37.572;2023-12-20T05:47:16;97976.24;;;4.76;84.95
20228;BME280;12195;55.790;37.572;2023-12-20T05:49:51;97981.15;;;4.81;84.70
20228;BME280;12195;55.790;37.572;2023-12-20T05:52:23;97989.16;;;4.78;84.53
20228;BME280;12195;55.790;37.572;2023-12-20T05:54:56;97975.56;;;4.73;84.99
20228;BME280;12195;55.790;37.572;2023-12-20T05:57:33;97983.10;;;4.77;84.48
20228;BME280;12195;55.790;37.572;2023-12-20T06:00:07;97982.26;;;4.77;84.83
20228;BME280;12195;55.790;37.572;2023-12-20T06:02:43;97979.78;;;4.89;84.22
20228;BME280;12195;55.790;37.572;2023-12-20T06:05:16;97978.38;;;4.84;83.96
20228;BME280;12195;55.790;37.572;2023-12-20T06:07:49;97982.08;;;4.80;84.02
20228;BME280;12195;55.790;37.572;2023-12-20T06:10:22;97983.10;;;4.77;84.15
20228;BME280;12195;55.790;37.572;2023-12-20T06:12:55;97977.99;;;4.76;84.17
20228;BME280;12195;55.790;37.572;2023-12-20T06:15:30;97978.16;;;4.73;84.38
20228;BME280;12195;55.790;37.572;2023-12-20T06:18:03;97994.70;;;4.72;84.65
20228;BME280;12195;55.790;37.572;2023-12-20T06:20:36;97994.52;;;4.75;84.56
20228;BME280;12195;55.790;37.572;2023-12-20T06:23:09;97992.48;;;4.80;84.43
20228;BME280;12195;55.790;37.572;2023-12-20T06:25:42;97992.02;;;4.87;83.91
20228;BME280;12195;55.790;37.572;2023-12-20T06:28:15;97995.64;;;4.85;84.07
20228;BME280;12195;55.790;37.572;2023-12-20T06:30:48;97995.55;;;4.86;84.56
20228;BME280;12195;55.790;37.572;2023-12-20T06:33:21;97998.71;;;4.91;84.25
20228;BME280;12195;55.790;37.572;2023-12-20T06:35:54;97993.25;;;4.96;83.65
20228;BME280;12195;55.790;37.572;2023-12-20T06:38:27;98001.69;;;4.99;83.32
20228;BME280;12195;55.790;37.572;2023-12-20T06:40:59;97991.20;;;5.01;83.22
20228;BME280;12195;55.790;37.572;2023-12-20T06:43:33;97993.80;;;5.01;83.56
20228;BME280;12195;55.790;37.572;2023-12-20T06:46:07;98002.16;;;5.06;83.51
20228;BME280;12195;55.790;37.572;2023-12-20T06:48:40;97995.67;;;5.13;82.97
20228;BME280;12195;55.790;37.572;2023-12-20T06:51:15;97993.83;;;5.15;82.92
20228;BME280;12195;55.790;37.572;2023-12-20T06:53:50;97991.78;;;5.20;82.86
20228;BME280;12195;55.790;37.572;2023-12-20T06:56:23;97987.30;;;5.22;83.08
20228;BME280;12195;55.790;37.572;2023-12-20T06:58:56;97981.92;;;5.25;82.73
20228;BME280;12195;55.790;37.572;2023-12-20T07:01:29;97992.70;;;5.33;81.48
20228;BME280;12195;55.790;37.572;2023-12-20T07:04:02;97994.58;;;5.31;81.40
20228;BME280;12195;55.790;37.572;2023-12-20T07:06:35;97990.37;;;5.28;81.30
20228;BME280;12195;55.790;37.572;2023-12-20T07:09:08;97998.84;;;5.32;81.55
20228;BME280;12195;55.790;37.572;2023-12-20T07:11:42;97992.61;;;5.34;81.19
20228;BME280;12195;55.790;37.572;2023-12-20T07:14:15;97989.70;;;5.39;81.14
20228;BME280;12195;55.790;37.572;2023-12-20T07:16:50;97995.49;;;5.44;80.71
20228;BME280;12195;55.790;37.572;2023-12-20T07:19:24;97994.64;;;5.43;80.89
20228;BME280;12195;55.790;37.572;2023-12-20T07:21:58;97998.00;;;5.45;81.05
20228;BME280;12195;55.790;37.572;2023-12-20T07:24:31;98012.68;;;5.46;81.04
20228;BME280;12195;55.790;37.572;2023-12-20T07:27:05;98001.88;;;5.52;80.26
20228;BME280;12195;55.790;37.572;2023-12-20T07:29:38;97998.64;;;5.49;80.30
20228;BME280;12195;55.790;37.572;2023-12-20T07:32:10;98013.20;;;5.65;79.52
20228;BME280;12195;55.790;37.572;2023-12-20T07:34:43;98011.84;;;5.60;79.23
20228;BME280;12195;55.790;37.572;2023-12-20T07:37:17;98004.87;;;5.46;79.55
20228;BME280;12195;55.790;37.572;2023-12-20T07:39:50;98009.23;;;5.46;79.67
20228;BME280;12195;55.790;37.572;2023-12-20T07:42:23;98015.46;;;5.43;79.48
20228;BME280;12195;55.790;37.572;2023-12-20T07:44:56;98016.66;;;5.38;79.59
20228;BME280;12195;55.790;37.572;2023-12-20T07:47:30;98024.95;;;5.30;79.99
20228;BME280;12195;55.790;37.572;2023-12-20T07:50:04;98040.82;;;5.26;80.18
20228;BME280;12195;55.790;37.572;2023-12-20T07:52:37;98033.95;;;5.25;80.20
20228;BME280;12195;55.790;37.572;2023-12-20T07:55:10;98029.30;;;5.30;79.92
20228;BME280;12195;55.790;37.572;2023-12-20T07:57:44;98036.30;;;5.29;79.62
20228;BME280;12195;55.790;37.572;2023-12-20T08:00:17;98030.33;;;5.27;79.65
20228;BME280;12195;55.790;37.572;2023-12-20T08:02:50;98039.91;;;5.27;79.76
20228;BME280;12195;55.790;37.572;2023-12-20T08:05:23;98041.58;;;5.28;79.70
20228;BME280;12195;55.790;37.572;2023-12-20T08:07:57;98034.97;;;5.36;79.56
20228;BME280;12195;55.790;37.572;2023-12-20T08:10:30;98033.94;;;5.39;79.78
20228;BME280;12195;55.790;37.572;2023-12-20T08:13:03;98040.37;;;5.47;79.85
20228;BME280;12195;55.790;37.572;2023-12-20T08:15:36;98037.87;;;5.60;79.98
20228;BME280;12195;55.790;37.572;2023-12-20T08:18:09;98043.98;;;5.73;79.30
20228;BME280;12195;55.790;37.572;2023-12-20T08:20:43;98049.28;;;5.86;78.77
20228;BME280;12195;55.790;37.572;2023-12-20T08:23:17;98027.77;;;5.96;77.58
20228;BME280;12195;55.790;37.572;2023-12-20T08:25:54;98037.92;;;6.01;77.81
20228;BME280;12195;55.790;37.572;2023-12-20T08:28:28;98040.24;;;6.05;77.55
20228;BME280;12195;55.790;37.572;2023-12-20T08:31:03;98038.27;;;6.09;77.32
20228;BME280;12195;55.790;37.572;2023-12-20T08:33:37;98035.48;;;6.12;77.35
20228;BME280;12195;55.790;37.572;2023-12-20T08:36:10;98037.86;;;6.15;77.46
20228;BME280;12195;55.790;37.572;2023-12-20T08:38:46;98033.09;;;6.21;76.99
20228;BME280;12195;55.790;37.572;2023-12-20T08:41:19;98040.09;;;6.21;77.03
20228;BME280;12195;55.790;37.572;2023-12-20T08:43:52;98032.91;;;6.24;76.81
20228;BME280;12195;55.790;37.572;2023-12-20T08:46:25;98023.97;;;6.28;76.77
20228;BME280;12195;55.790;37.572;2023-12-20T08:48:58;98028.05;;;6.32;76.40
20228;BME280;12195;55.790;37.572;2023-12-20T08:51:32;98031.41;;;6.34;76.49
20228;BME280;12195;55.790;37.572;2023-12-20T08:54:05;98023.59;;;6.34;76.48
20228;BME280;12195;55.790;37.572;2023-12-20T08:56:39;98037.05;;;6.41;76.39
20228;BME280;12195;55.790;37.572;2023-12-20T08:59:12;98024.64;;;6.44;75.81
20228;BME280;12195;55.790;37.572;2023-12-20T09:01:45;98022.36;;;6.40;76.16
20228;BME280;12195;55.790;37.572;2023-12-20T09:04:21;98023.36;;;6.37;76.31
20228;BME280;12195;55.790;37.572;2023-12-20T09:06:56;98018.15;;;6.37;75.95
20228;BME280;12195;55.790;37.572;2023-12-20T09:09:29;98019.28;;;6.33;76.24
20228;BME280;12195;55.790;37.572;2023-12-20T09:12:02;98013.45;;;6.30;76.50
20228;BME280;12195;55.790;37.572;2023-12-20T09:14:35;98023.70;;;6.45;76.93
20228;BME280;12195;55.790;37.572;2023-12-20T09:17:08;98004.50;;;6.34;75.82
20228;BME280;12195;55.790;37.572;2023-12-20T09:19:44;98016.05;;;6.30;76.57
20228;BME280;12195;55.790;37.572;2023-12-20T09:22:18;98013.45;;;6.30;76.59
20228;BME280;12195;55.790;37.572;2023-12-20T09:24:52;98015.20;;;6.29;76.48
20228;BME280;12195;55.790;37.572;2023-12-20T09:27:25;98013.45;;;6.30;76.69
20228;BME280;12195;55.790;37.572;2023-12-20T09:29:58;98010.12;;;6.28;77.06
20228;BME280;12195;55.790;37.572;2023-12-20T09:32:37;98010.21;;;6.26;77.18
20228;BME280;12195;55.790;37.572;2023-12-20T09:35:09;98006.77;;;6.26;77.26
20228;BME280;12195;55.790;37.572;2023-12-20T09:37:42;98017.19;;;6.26;77.10
20228;BME280;12195;55.790;37.572;2023-12-20T09:40:17;98016.34;;;6.25;77.18
20228;BME280;12195;55.790;37.572;2023-12-20T09:45:31;98017.72;;;6.31;76.97
20228;BME280;12195;55.790;37.572;2023-12-20T09:48:05;98024.91;;;6.27;77.10
20228;BME280;12195;55.790;37.572;2023-12-20T09:50:40;98009.27;;;6.27;77.28
20228;BME280;12195;55.790;37.572;2023-12-20T09:53:16;98010.21;;;6.26;77.04
20228;BME280;12195;55.790;37.572;2023-12-20T09:55:51;98018.41;;;6.20;77.34
20228;BME280;12195;55.790;37.572;2023-12-20T09:58:25;98013.29;;;6.19;77.73
20228;BME280;12195;55.790;37.572;2023-12-20T10:01:00;98017.59;;;6.20;77.85
20228;BME280;12195;55.790;37.572;2023-12-20T10:03:34;98020.83;;;6.23;77.74
20228;BME280;12195;55.790;37.572;2023-12-20T10:06:08;98026.13;;;6.22;77.79
20228;BME280;12195;55.790;37.572;2023-12-20T10:08:41;98019.06;;;6.24;77.91
20228;BME280;12195;55.790;37.572;2023-12-20T10:11:15;98030.21;;;6.26;77.61
20228;BME280;12195;55.790;37.572;2023-12-20T10:13:49;98026.98;;;6.22;77.50
20228;BME280;12195;55.790;37.572;2023-12-20T10:16:25;98029.58;;;6.22;77.73
20228;BME280;12195;55.790;37.572;2023-12-20T10:18:59;98023.43;;;6.23;77.50
20228;BME280;12195;55.790;37.572;2023-12-20T10:21:34;98026.22;;;6.20;77.93
20228;BME280;12195;55.790;37.572;2023-12-20T10:24:07;98026.22;;;6.20;77.99
20228;BME280;12195;55.790;37.572;2023-12-20T10:26:41;98026.88;;;6.24;77.64
20228;BME280;12195;55.790;37.572;2023-12-20T10:29:14;98017.38;;;6.23;77.95
20228;BME280;12195;55.790;37.572;2023-12-20T10:31:47;98019.88;;;6.24;77.85
20228;BME280;12195;55.790;37.572;2023-12-20T10:34:22;98015.42;;;6.26;77.60
20228;BME280;12195;55.790;37.572;2023-12-20T10:36:55;98022.11;;;6.30;77.55
20228;BME280;12195;55.790;37.572;2023-12-20T10:39:28;98026.02;;;6.50;76.83
20228;BME280;12195;55.790;37.572;2023-12-20T10:42:01;98024.40;;;6.35;76.59
20228;BME280;12195;55.790;37.572;2023-12-20T10:44:36;98028.05;;;6.32;76.78
20228;BME280;12195;55.790;37.572;2023-12-20T10:47:12;98025.88;;;6.39;76.66
20228;BME280;12195;55.790;37.572;2023-12-20T10:49:45;98028.89;;;6.33;76.61
20228;BME280;12195;55.790;37.572;2023-12-20T10:52:20;98030.02;;;6.29;76.84
20228;BME280;12195;55.790;37.572;2023-12-20T10:54:55;98031.78;;;6.28;76.90
20228;BME280;12195;55.790;37.572;2023-12-20T10:57:28;98024.81;;;6.29;76.78
20228;BME280;12195;55.790;37.572;2023-12-20T11:00:04;98023.15;;;6.28;77.08
20228;BME280;12195;55.790;37.572;2023-12-20T11:02:40;98024.81;;;6.29;77.08
20228;BME280;12195;55.790;37.572;2023-12-20T11:08:10;98030.11;;;6.27;76.90
20228;BME280;12195;55.790;37.572;2023-12-20T11:14:00;98025.63;;;6.29;76.67
20228;BME280;12195;55.790;37.572;2023-12-20T11:16:28;98016.80;;;6.32;76.80
20228;BME280;12195;55.790;37.572;2023-12-20T11:19:06;98010.66;;;6.33;76.66
20228;BME280;12195;55.790;37.572;2023-12-20T11:21:40;97997.42;;;6.36;76.41
20228;BME280;12195;55.790;37.572;2023-12-20T11:24:15;97999.38;;;6.32;76.63
20228;BME280;12195;55.790;37.572;2023-12-20T11:26:49;98002.64;;;6.36;75.97
20228;BME280;12195;55.790;37.572;2023-12-20T11:29:30;98001.17;;;6.32;75.94
20228;BME280;12195;55.790;37.572;2023-12-20T11:37:47;98003.65;;;6.33;76.34
20228;BME280;12195;55.790;37.572;2023-12-20T11:40:23;98007.09;;;6.34;76.19
20228;BME280;12195;55.790;37.572;2023-12-20T11:42:57;98016.48;;;6.36;76.24
20228;BME280;12195;55.790;37.572;2023-12-20T11:45:31;98017.23;;;6.38;76.11
20228;BME280;12195;55.790;37.572;2023-12-20T11:48:07;98013.06;;;6.36;76.13
20228;BME280;12195;55.790;37.572;2023-12-20T11:50:40;98012.03;;;6.38;76.44
20228;BME280;12195;55.790;37.572;2023-12-20T11:53:13;98014.54;;;6.40;76.46
20228;BME280;12195;55.790;37.572;2023-12-20T11:55:50;98011.80;;;6.41;76.24
20228;BME280;12195;55.790;37.572;2023-12-20T11:58:26;98022.45;;;6.38;76.21
20228;BME280;12195;55.790;37.572;2023-12-20T12:00:59;98018.06;;;6.39;76.42
20228;BME280;12195;55.790;37.572;2023-12-20T12:03:35;98023.08;;;6.42;76.38
20228;BME280;12195;55.790;37.572;2023-12-20T12:06:09;98017.86;;;6.42;76.24
20228;BME280;12195;55.790;37.572;2023-12-20T12:08:44;98023.80;;;6.44;76.02
20228;BME280;12195;55.790;37.572;2023-12-20T12:11:18;98021.61;;;6.38;76.06
20228;BME280;12195;55.790;37.572;2023-12-20T12:13:52;98034.63;;;6.38;76.16
20228;BME280;12195;55.790;37.572;2023-12-20T12:16:27;98030.27;;;6.38;76.46
20228;BME280;12195;55.790;37.572;2023-12-20T12:19:02;98041.23;;;6.43;76.20
20228;BME280;12195;55.790;37.572;2023-12-20T12:21:37;98042.98;;;6.43;76.31
20228;BME280;12195;55.790;37.572;2023-12-20T12:24:11;98042.27;;;6.41;76.10
20228;BME280;12195;55.790;37.572;2023-12-20T12:26:52;98038.28;;;6.35;76.31
20228;BME280;12195;55.790;37.572;2023-12-20T12:29:26;98043.59;;;6.34;76.24
20228;BME280;12195;55.790;37.572;2023-12-20T12:32:00;98042.20;;;6.28;76.74
20228;BME280;12195;55.790;37.572;2023-12-20T12:34:38;98044.91;;;6.27;77.01
20228;BME280;12195;55.790;37.572;2023-12-20T12:37:12;98049.67;;;6.20;77.23
20228;BME280;12195;55.790;37.572;2023-12-20T12:39:47;98048.95;;;6.18;77.58
20228;BME280;12195;55.790;37.572;2023-12-20T12:42:20;98069.25;;;6.13;78.05
20228;BME280;12195;55.790;37.572;2023-12-20T12:44:53;98075.14;;;6.29;78.15
20228;BME280;12195;55.790;37.572;2023-12-20T12:47:25;98072.77;;;6.12;77.41
20228;BME280;12195;55.790;37.572;2023-12-20T12:49:59;98081.34;;;6.00;78.21
20228;BME280;12195;55.790;37.572;2023-12-20T12:52:33;98081.74;;;5.94;78.45
20228;BME280;12195;55.790;37.572;2023-12-20T12:55:07;98081.37;;;5.86;78.83
20228;BME280;12195;55.790;37.572;2023-12-20T12:57:42;98086.04;;;5.81;79.10
20228;BME280;12195;55.790;37.572;2023-12-20T13:00:15;98088.79;;;5.78;79.53
20228;BME280;12195;55.790;37.572;2023-12-20T13:02:49;98083.85;;;5.73;79.74
20228;BME280;12195;55.790;37.572;2023-12-20T13:05:22;98084.79;;;5.72;79.95
20228;BME280;12195;55.790;37.572;2023-12-20T13:07:56;98077.92;;;5.71;79.97
20228;BME280;12195;55.790;37.572;2023-12-20T13:10:29;98079.88;;;5.68;80.27
20228;BME280;12195;55.790;37.572;2023-12-20T13:13:02;98077.64;;;5.62;80.43
20228;BME280;12195;55.790;37.572;2023-12-20T13:15:35;98078.84;;;5.56;80.94
20228;BME280;12195;55.790;37.572;2023-12-20T13:18:08;98092.80;;;5.55;80.79
20228;BME280;12195;55.790;37.572;2023-12-20T13:20:42;98078.20;;;5.53;81.13
20228;BME280;12195;55.790;37.572;2023-12-20T13:23:16;98076.80;;;5.47;81.86
20228;BME280;12195;55.790;37.572;2023-12-20T13:25:51;98075.14;;;5.46;82.43
20228;BME280;12195;55.790;37.572;2023-12-20T13:28:25;98079.31;;;5.49;82.36
20228;BME280;12195;55.790;37.572;2023-12-20T13:30:59;98080.43;;;5.45;82.43
20228;BME280;12195;55.790;37.572;2023-12-20T13:33:32;98084.88;;;5.43;82.64
20228;BME280;12195;55.790;37.572;2023-12-20T13:36:06;98087.48;;;5.43;82.40
20228;BME280;12195;55.790;37.572;2023-12-20T13:38:40;98084.32;;;5.38;82.54
20228;BME280;12195;55.790;37.572;2023-12-20T13:41:14;98076.69;;;5.35;83.13
20228;BME280;12195;55.790;37.572;2023-12-20T13:43:47;98080.22;;;5.34;83.49
20228;BME280;12195;55.790;37.572;2023-12-20T13:46:20;98069.73;;;5.35;83.47
20228;BME280;12195;55.790;37.572;2023-12-20T13:48:54;98072.42;;;5.34;83.47